N2WW KSLC-KMYR
Flight info
| Callsign | N2WW |
|---|---|
| Flight time | N/A |
| Altitude | 37000 |
| Route | LEY FRI CKV MYR DCT |
| Aircraft | B738/M-L/C |
Departure
| Time | N/A |
|---|---|
| Airport | Salt Lake City International Airport (KSLC) |
Arrival
| Time | 2026-04-27 15:59 |
|---|---|
| Airport | Myrtle Beach International Airport (KMYR) |
| Time | Latitude | Longitude | Altitude | Speed | Heading |
|---|---|---|---|---|---|
| 2026-04-27 12:36 | 40.72958 | -110.81735 | 17500 ft | 403 kts | 94° |
| 2026-04-27 12:37 | 40.72754 | -110.78085 | 17500 ft | 403 kts | 94° |
| 2026-04-27 12:37 | 40.72546 | -110.74384 | 17500 ft | 403 kts | 94° |
| 2026-04-27 12:37 | 40.72338 | -110.70707 | 18209 ft | 409 kts | 94° |
| 2026-04-27 12:37 | 40.72126 | -110.66980 | 19431 ft | 414 kts | 94° |
| 2026-04-27 12:38 | 40.71910 | -110.63215 | 20457 ft | 421 kts | 94° |
| 2026-04-27 12:38 | 40.71687 | -110.59331 | 21495 ft | 428 kts | 94° |
| 2026-04-27 12:38 | 40.71462 | -110.55447 | 22444 ft | 435 kts | 94° |
| 2026-04-27 12:38 | 40.71229 | -110.51436 | 23434 ft | 440 kts | 94° |
| 2026-04-27 12:39 | 40.70995 | -110.47433 | 24295 ft | 447 kts | 94° |
| 2026-04-27 12:39 | 40.70752 | -110.43317 | 25158 ft | 453 kts | 94° |
| 2026-04-27 12:39 | 40.70269 | -110.35192 | 26738 ft | 464 kts | 94° |
| 2026-04-27 12:40 | 40.70012 | -110.30911 | 27525 ft | 470 kts | 95° |
| 2026-04-27 12:40 | 40.69755 | -110.26646 | 28254 ft | 475 kts | 95° |
| 2026-04-27 12:40 | 40.69492 | -110.22311 | 28943 ft | 481 kts | 95° |
| 2026-04-27 12:40 | 40.69222 | -110.17899 | 29973 ft | 477 kts | 95° |
| 2026-04-27 12:41 | 40.68977 | -110.13913 | 32463 ft | 436 kts | 95° |
| 2026-04-27 12:41 | 40.68729 | -110.09909 | 32983 ft | 443 kts | 95° |
| 2026-04-27 12:41 | 40.68481 | -110.05921 | 33835 ft | 440 kts | 95° |
| 2026-04-27 12:41 | 40.68230 | -110.01904 | 34595 ft | 439 kts | 95° |
| 2026-04-27 12:42 | 40.67981 | -109.97938 | 35329 ft | 438 kts | 95° |
| 2026-04-27 12:42 | 40.67728 | -109.93939 | 36040 ft | 437 kts | 95° |
| 2026-04-27 12:42 | 40.67477 | -109.89993 | 36656 ft | 437 kts | 95° |
| 2026-04-27 12:42 | 40.67223 | -109.86014 | 36868 ft | 433 kts | 95° |
| 2026-04-27 12:43 | 40.66970 | -109.82075 | 36915 ft | 441 kts | 95° |
| 2026-04-27 12:43 | 40.66705 | -109.77972 | 36953 ft | 456 kts | 95° |
| 2026-04-27 12:43 | 40.66434 | -109.73812 | 36948 ft | 462 kts | 95° |
| 2026-04-27 12:44 | 40.65885 | -109.65434 | 36943 ft | 459 kts | 95° |
| 2026-04-27 12:44 | 40.65334 | -109.57114 | 36945 ft | 458 kts | 95° |
| 2026-04-27 12:45 | 40.65219 | -109.55405 | 36945 ft | 458 kts | 95° |
| 2026-04-27 12:45 | 40.64995 | -109.52058 | 36905 ft | 470 kts | 95° |
| 2026-04-27 12:45 | 40.64705 | -109.47743 | 36957 ft | 484 kts | 95° |
| 2026-04-27 12:45 | 40.64401 | -109.43248 | 36959 ft | 496 kts | 95° |
| 2026-04-27 12:46 | 40.64097 | -109.38764 | 36949 ft | 497 kts | 95° |
| 2026-04-27 12:46 | 40.63478 | -109.29752 | 36942 ft | 493 kts | 95° |
| 2026-04-27 12:47 | 40.63205 | -109.25813 | 36928 ft | 498 kts | 95° |
| 2026-04-27 12:47 | 40.62888 | -109.21249 | 36953 ft | 510 kts | 95° |
| 2026-04-27 12:47 | 40.62560 | -109.16567 | 36943 ft | 512 kts | 95° |
| 2026-04-27 12:48 | 40.61906 | -109.07297 | 36942 ft | 508 kts | 95° |
| 2026-04-27 12:48 | 40.61248 | -108.98083 | 36945 ft | 508 kts | 95° |
| 2026-04-27 12:49 | 40.60583 | -108.88872 | 36945 ft | 508 kts | 95° |
| 2026-04-27 12:49 | 40.60083 | -108.82012 | 36945 ft | 508 kts | 95° |
| 2026-04-27 12:50 | 40.59405 | -108.72814 | 36913 ft | 507 kts | 95° |
| 2026-04-27 12:50 | 40.58720 | -108.63613 | 36919 ft | 508 kts | 95° |
| 2026-04-27 12:51 | 40.58027 | -108.54395 | 36924 ft | 508 kts | 95° |
| 2026-04-27 12:51 | 40.57325 | -108.45161 | 36950 ft | 508 kts | 95° |
| 2026-04-27 12:52 | 40.56616 | -108.35939 | 36950 ft | 508 kts | 95° |
| 2026-04-27 12:52 | 40.55896 | -108.26674 | 36941 ft | 508 kts | 96° |
| 2026-04-27 12:53 | 40.54810 | -108.12870 | 36943 ft | 508 kts | 96° |
| 2026-04-27 12:53 | 40.54075 | -108.03654 | 36944 ft | 508 kts | 96° |
| 2026-04-27 12:54 | 40.53336 | -107.94473 | 36945 ft | 508 kts | 96° |
| 2026-04-27 12:54 | 40.52586 | -107.85254 | 36946 ft | 508 kts | 96° |
| 2026-04-27 12:55 | 40.51832 | -107.76070 | 36947 ft | 508 kts | 96° |
| 2026-04-27 12:55 | 40.51067 | -107.66843 | 36948 ft | 508 kts | 96° |
| 2026-04-27 12:56 | 40.50295 | -107.57632 | 36949 ft | 508 kts | 96° |
| 2026-04-27 12:56 | 40.49517 | -107.48426 | 36950 ft | 508 kts | 96° |
| 2026-04-27 12:57 | 40.48734 | -107.39263 | 36951 ft | 508 kts | 96° |
| 2026-04-27 12:57 | 40.47944 | -107.30090 | 36942 ft | 508 kts | 97° |
| 2026-04-27 12:58 | 40.47140 | -107.20863 | 36943 ft | 508 kts | 97° |
| 2026-04-27 12:58 | 40.46335 | -107.11693 | 36943 ft | 508 kts | 97° |
| 2026-04-27 12:59 | 40.45522 | -107.02519 | 36944 ft | 508 kts | 97° |
| 2026-04-27 12:59 | 40.44697 | -106.93298 | 36945 ft | 508 kts | 97° |
| 2026-04-27 13:00 | 40.43871 | -106.84147 | 36946 ft | 508 kts | 97° |
| 2026-04-27 13:00 | 40.43033 | -106.74939 | 36947 ft | 508 kts | 97° |
| 2026-04-27 13:01 | 40.42188 | -106.65744 | 36948 ft | 508 kts | 97° |
| 2026-04-27 13:01 | 40.41340 | -106.56599 | 36949 ft | 508 kts | 97° |
| 2026-04-27 13:02 | 40.40483 | -106.47438 | 36950 ft | 508 kts | 97° |
| 2026-04-27 13:02 | 40.39619 | -106.38281 | 36951 ft | 508 kts | 97° |
| 2026-04-27 13:03 | 40.38742 | -106.29061 | 36942 ft | 508 kts | 98° |
| 2026-04-27 13:03 | 40.37863 | -106.19899 | 36943 ft | 508 kts | 98° |
| 2026-04-27 13:04 | 40.36978 | -106.10759 | 36943 ft | 508 kts | 98° |
| 2026-04-27 13:04 | 40.36081 | -106.01567 | 36944 ft | 508 kts | 98° |
| 2026-04-27 13:05 | 40.35182 | -105.92428 | 36945 ft | 508 kts | 98° |
| 2026-04-27 13:05 | 40.34277 | -105.83304 | 36946 ft | 508 kts | 98° |
| 2026-04-27 13:06 | 40.33356 | -105.74103 | 36947 ft | 508 kts | 98° |
| 2026-04-27 13:06 | 40.32434 | -105.64957 | 36948 ft | 508 kts | 98° |
| 2026-04-27 13:07 | 40.31508 | -105.55854 | 36949 ft | 508 kts | 98° |
| 2026-04-27 13:07 | 40.30570 | -105.46703 | 36950 ft | 508 kts | 98° |
| 2026-04-27 13:08 | 40.29626 | -105.37560 | 36951 ft | 508 kts | 98° |
| 2026-04-27 13:08 | 40.28674 | -105.28415 | 36943 ft | 508 kts | 98° |
| 2026-04-27 13:09 | 40.27713 | -105.19259 | 36943 ft | 508 kts | 98° |
| 2026-04-27 13:09 | 40.26746 | -105.10116 | 36944 ft | 508 kts | 98° |
| 2026-04-27 13:10 | 40.25775 | -105.01002 | 36944 ft | 508 kts | 98° |
| 2026-04-27 13:10 | 40.24795 | -104.91876 | 36945 ft | 508 kts | 98° |
| 2026-04-27 13:11 | 40.23809 | -104.82769 | 36946 ft | 508 kts | 98° |
| 2026-04-27 13:11 | 40.22812 | -104.73622 | 36947 ft | 508 kts | 98° |
| 2026-04-27 13:12 | 40.21706 | -104.64504 | 36948 ft | 508 kts | 99° |
| 2026-04-27 13:12 | 40.20576 | -104.55442 | 36949 ft | 508 kts | 99° |
| 2026-04-27 13:13 | 40.19434 | -104.46339 | 36950 ft | 508 kts | 99° |
| 2026-04-27 13:13 | 40.18289 | -104.37273 | 36951 ft | 508 kts | 99° |
| 2026-04-27 13:14 | 40.17134 | -104.28188 | 36943 ft | 507 kts | 100° |
| 2026-04-27 13:14 | 40.15973 | -104.19113 | 36943 ft | 508 kts | 100° |
| 2026-04-27 13:15 | 40.14806 | -104.10053 | 36944 ft | 508 kts | 100° |
| 2026-04-27 13:15 | 40.13626 | -104.00950 | 36945 ft | 508 kts | 100° |
| 2026-04-27 13:16 | 40.12449 | -103.91932 | 36945 ft | 508 kts | 100° |
| 2026-04-27 13:16 | 40.11257 | -103.82848 | 36946 ft | 508 kts | 100° |
| 2026-04-27 13:17 | 40.10057 | -103.73768 | 36948 ft | 507 kts | 100° |
| 2026-04-27 13:17 | 40.08860 | -103.64758 | 36948 ft | 508 kts | 100° |
| 2026-04-27 13:18 | 40.07649 | -103.55705 | 36949 ft | 508 kts | 100° |
| 2026-04-27 13:18 | 40.06430 | -103.46641 | 36950 ft | 508 kts | 100° |
| 2026-04-27 13:19 | 40.05204 | -103.37587 | 36951 ft | 508 kts | 100° |
| 2026-04-27 13:19 | 40.03970 | -103.28532 | 36943 ft | 507 kts | 101° |
| 2026-04-27 13:20 | 40.02732 | -103.19496 | 36943 ft | 507 kts | 101° |
| 2026-04-27 13:20 | 40.01486 | -103.10461 | 36944 ft | 507 kts | 101° |
| 2026-04-27 13:21 | 40.00230 | -103.01404 | 36944 ft | 507 kts | 101° |
| 2026-04-27 13:21 | 39.98978 | -102.92431 | 36945 ft | 507 kts | 101° |
| 2026-04-27 13:22 | 39.97708 | -102.83386 | 36946 ft | 507 kts | 101° |
| 2026-04-27 13:22 | 39.96432 | -102.74345 | 36947 ft | 507 kts | 101° |
| 2026-04-27 13:23 | 39.95150 | -102.65323 | 36948 ft | 507 kts | 101° |
| 2026-04-27 13:23 | 39.93870 | -102.56362 | 36949 ft | 507 kts | 101° |
| 2026-04-27 13:24 | 39.92574 | -102.47335 | 36950 ft | 507 kts | 101° |
| 2026-04-27 13:24 | 39.91269 | -102.38307 | 36951 ft | 507 kts | 101° |
| 2026-04-27 13:25 | 39.89955 | -102.29262 | 36942 ft | 507 kts | 102° |
| 2026-04-27 13:25 | 39.88646 | -102.20309 | 36943 ft | 507 kts | 102° |
| 2026-04-27 13:26 | 39.87322 | -102.11299 | 36943 ft | 507 kts | 102° |
| 2026-04-27 13:26 | 39.85989 | -102.02288 | 36944 ft | 507 kts | 102° |
| 2026-04-27 13:27 | 39.84661 | -101.93353 | 36945 ft | 507 kts | 102° |
| 2026-04-27 13:27 | 39.83317 | -101.84358 | 36946 ft | 507 kts | 102° |
| 2026-04-27 13:28 | 39.81967 | -101.75380 | 36947 ft | 507 kts | 102° |
| 2026-04-27 13:28 | 39.80610 | -101.66398 | 36948 ft | 507 kts | 102° |
| 2026-04-27 13:29 | 39.79245 | -101.57414 | 36949 ft | 507 kts | 102° |
| 2026-04-27 13:29 | 39.77873 | -101.48436 | 36950 ft | 507 kts | 102° |
| 2026-04-27 13:30 | 39.76494 | -101.39463 | 36950 ft | 507 kts | 102° |
| 2026-04-27 13:30 | 39.75109 | -101.30487 | 36941 ft | 507 kts | 103° |
| 2026-04-27 13:31 | 39.73726 | -101.21586 | 36942 ft | 507 kts | 103° |
| 2026-04-27 13:31 | 39.72327 | -101.12626 | 36943 ft | 507 kts | 103° |
| 2026-04-27 13:32 | 39.70921 | -101.03670 | 36944 ft | 507 kts | 103° |
| 2026-04-27 13:32 | 39.69509 | -100.94720 | 36945 ft | 507 kts | 103° |
| 2026-04-27 13:33 | 39.68090 | -100.85773 | 36946 ft | 507 kts | 103° |
| 2026-04-27 13:33 | 39.66663 | -100.76826 | 36947 ft | 507 kts | 103° |
| 2026-04-27 13:34 | 39.65238 | -100.67931 | 36948 ft | 507 kts | 103° |
| 2026-04-27 13:34 | 39.63797 | -100.58985 | 36949 ft | 507 kts | 103° |
| 2026-04-27 13:35 | 39.62350 | -100.50053 | 36949 ft | 507 kts | 103° |
| 2026-04-27 13:35 | 39.60896 | -100.41119 | 36950 ft | 507 kts | 103° |
| 2026-04-27 13:36 | 39.59443 | -100.32233 | 36943 ft | 507 kts | 103° |
| 2026-04-27 13:36 | 39.57975 | -100.23316 | 36942 ft | 507 kts | 103° |
| 2026-04-27 13:37 | 39.56501 | -100.14391 | 36943 ft | 507 kts | 103° |
| 2026-04-27 13:37 | 39.55027 | -100.05521 | 36944 ft | 507 kts | 103° |
| 2026-04-27 13:38 | 39.53537 | -99.96596 | 36945 ft | 507 kts | 103° |
| 2026-04-27 13:38 | 39.52044 | -99.87699 | 36946 ft | 507 kts | 103° |
| 2026-04-27 13:39 | 39.50553 | -99.78854 | 36947 ft | 507 kts | 103° |
| 2026-04-27 13:39 | 39.49042 | -99.69939 | 36947 ft | 507 kts | 103° |
| 2026-04-27 13:40 | 39.47527 | -99.61041 | 36948 ft | 507 kts | 103° |
| 2026-04-27 13:40 | 39.46014 | -99.52199 | 36949 ft | 507 kts | 103° |
| 2026-04-27 13:41 | 39.44483 | -99.43296 | 36950 ft | 507 kts | 103° |
| 2026-04-27 13:41 | 39.42947 | -99.34405 | 36950 ft | 507 kts | 104° |
| 2026-04-27 13:42 | 39.41415 | -99.25582 | 36942 ft | 506 kts | 104° |
| 2026-04-27 13:42 | 39.39865 | -99.16695 | 36943 ft | 507 kts | 104° |
| 2026-04-27 13:43 | 39.38319 | -99.07880 | 36944 ft | 507 kts | 104° |
| 2026-04-27 13:43 | 39.36756 | -98.99007 | 36944 ft | 507 kts | 104° |
| 2026-04-27 13:44 | 39.35188 | -98.90141 | 36945 ft | 506 kts | 104° |
| 2026-04-27 13:44 | 39.33621 | -98.81328 | 36946 ft | 506 kts | 104° |
| 2026-04-27 13:45 | 39.32036 | -98.72457 | 36947 ft | 506 kts | 104° |
| 2026-04-27 13:45 | 39.30448 | -98.63612 | 36948 ft | 506 kts | 104° |
| 2026-04-27 13:46 | 39.28864 | -98.54827 | 36949 ft | 506 kts | 104° |
| 2026-04-27 13:46 | 39.27261 | -98.45972 | 36950 ft | 506 kts | 104° |
| 2026-04-27 13:47 | 39.25662 | -98.37188 | 36951 ft | 506 kts | 104° |
| 2026-04-27 13:47 | 39.24044 | -98.28336 | 36942 ft | 506 kts | 105° |
| 2026-04-27 13:48 | 39.22430 | -98.19555 | 36942 ft | 506 kts | 105° |
| 2026-04-27 13:48 | 39.20801 | -98.10721 | 36943 ft | 506 kts | 105° |
| 2026-04-27 13:49 | 39.19173 | -98.01942 | 36944 ft | 506 kts | 105° |
| 2026-04-27 13:49 | 39.17527 | -97.93098 | 36945 ft | 506 kts | 105° |
| 2026-04-27 13:50 | 39.15884 | -97.84312 | 36946 ft | 506 kts | 105° |
| 2026-04-27 13:50 | 39.14234 | -97.75532 | 36947 ft | 506 kts | 105° |
| 2026-04-27 13:51 | 39.12580 | -97.66763 | 36948 ft | 506 kts | 105° |
| 2026-04-27 13:51 | 39.10919 | -97.58001 | 36949 ft | 506 kts | 105° |
| 2026-04-27 13:52 | 39.09250 | -97.49236 | 36949 ft | 506 kts | 105° |
| 2026-04-27 13:52 | 39.07567 | -97.40433 | 36950 ft | 506 kts | 105° |
| 2026-04-27 13:53 | 39.05036 | -97.27269 | 36942 ft | 506 kts | 106° |
| 2026-04-27 13:54 | 39.03344 | -97.18516 | 36942 ft | 506 kts | 106° |
| 2026-04-27 13:54 | 39.01644 | -97.09762 | 36943 ft | 506 kts | 106° |
| 2026-04-27 13:55 | 38.99940 | -97.01020 | 36944 ft | 506 kts | 106° |
| 2026-04-27 13:55 | 38.98227 | -96.92276 | 36945 ft | 506 kts | 106° |
| 2026-04-27 13:56 | 38.96495 | -96.83538 | 36946 ft | 506 kts | 106° |
| 2026-04-27 13:56 | 38.94745 | -96.74863 | 36947 ft | 506 kts | 106° |
| 2026-04-27 13:57 | 38.92965 | -96.66092 | 36948 ft | 506 kts | 106° |
| 2026-04-27 13:57 | 38.91191 | -96.57384 | 36948 ft | 506 kts | 106° |
| 2026-04-27 13:58 | 38.89407 | -96.48666 | 36950 ft | 506 kts | 106° |
| 2026-04-27 13:58 | 38.87620 | -96.39967 | 36951 ft | 506 kts | 106° |
| 2026-04-27 13:59 | 38.85826 | -96.31265 | 36941 ft | 505 kts | 107° |
| 2026-04-27 13:59 | 38.84029 | -96.22591 | 36943 ft | 505 kts | 107° |
| 2026-04-27 14:00 | 38.82225 | -96.13916 | 36943 ft | 505 kts | 107° |
| 2026-04-27 14:00 | 38.80413 | -96.05238 | 36944 ft | 505 kts | 107° |
| 2026-04-27 14:01 | 38.78595 | -95.96564 | 36945 ft | 505 kts | 107° |
| 2026-04-27 14:01 | 38.76765 | -95.87873 | 36946 ft | 505 kts | 107° |
| 2026-04-27 14:02 | 38.74931 | -95.79195 | 36947 ft | 505 kts | 107° |
| 2026-04-27 14:02 | 38.73104 | -95.70586 | 36948 ft | 505 kts | 107° |
| 2026-04-27 14:03 | 38.71257 | -95.61916 | 36948 ft | 505 kts | 107° |
| 2026-04-27 14:03 | 38.69406 | -95.53258 | 36949 ft | 505 kts | 107° |
| 2026-04-27 14:04 | 38.67545 | -95.44593 | 36950 ft | 505 kts | 107° |
| 2026-04-27 14:04 | 38.65680 | -95.35944 | 36951 ft | 505 kts | 107° |
| 2026-04-27 14:05 | 38.63814 | -95.27319 | 36942 ft | 505 kts | 108° |
| 2026-04-27 14:05 | 38.61938 | -95.18684 | 36943 ft | 505 kts | 108° |
| 2026-04-27 14:06 | 38.60053 | -95.10044 | 36943 ft | 505 kts | 108° |
| 2026-04-27 14:06 | 38.58176 | -95.01473 | 36944 ft | 505 kts | 108° |
| 2026-04-27 14:07 | 38.56280 | -94.92850 | 36945 ft | 505 kts | 108° |
| 2026-04-27 14:07 | 38.54379 | -94.84233 | 36946 ft | 505 kts | 108° |
| 2026-04-27 14:08 | 38.52473 | -94.75630 | 36947 ft | 505 kts | 108° |
| 2026-04-27 14:08 | 38.50553 | -94.66992 | 36948 ft | 505 kts | 108° |
| 2026-04-27 14:09 | 38.48637 | -94.58409 | 36949 ft | 505 kts | 108° |
| 2026-04-27 14:09 | 38.46711 | -94.49812 | 36950 ft | 505 kts | 108° |
| 2026-04-27 14:10 | 38.44783 | -94.41242 | 36950 ft | 505 kts | 108° |
| 2026-04-27 14:10 | 38.42846 | -94.32660 | 36944 ft | 505 kts | 108° |
| 2026-04-27 14:11 | 38.40906 | -94.24103 | 36942 ft | 505 kts | 108° |
| 2026-04-27 14:11 | 38.38961 | -94.15554 | 36943 ft | 505 kts | 108° |
| 2026-04-27 14:12 | 38.36996 | -94.06943 | 36944 ft | 505 kts | 108° |
| 2026-04-27 14:12 | 38.35035 | -93.98387 | 36944 ft | 505 kts | 108° |
| 2026-04-27 14:13 | 38.33069 | -93.89840 | 36945 ft | 505 kts | 108° |
| 2026-04-27 14:13 | 38.31095 | -93.81290 | 36946 ft | 505 kts | 108° |
| 2026-04-27 14:14 | 38.29116 | -93.72750 | 36947 ft | 505 kts | 108° |
| 2026-04-27 14:14 | 38.27129 | -93.64205 | 36948 ft | 505 kts | 108° |
| 2026-04-27 14:15 | 38.25136 | -93.55668 | 36949 ft | 505 kts | 108° |
| 2026-04-27 14:15 | 38.23138 | -93.47140 | 36950 ft | 504 kts | 108° |
| 2026-04-27 14:16 | 38.21147 | -93.38673 | 36950 ft | 504 kts | 108° |
| 2026-04-27 14:16 | 38.19136 | -93.30148 | 36941 ft | 504 kts | 109° |
| 2026-04-27 14:17 | 38.17120 | -93.21639 | 36942 ft | 504 kts | 109° |
| 2026-04-27 14:17 | 38.15088 | -93.13089 | 36943 ft | 504 kts | 109° |
| 2026-04-27 14:18 | 38.13060 | -93.04588 | 36944 ft | 504 kts | 109° |
| 2026-04-27 14:18 | 38.11040 | -92.96150 | 36944 ft | 504 kts | 109° |
| 2026-04-27 14:19 | 38.08999 | -92.87654 | 36945 ft | 504 kts | 109° |
| 2026-04-27 14:19 | 38.06953 | -92.79166 | 36946 ft | 504 kts | 109° |
| 2026-04-27 14:20 | 38.04903 | -92.70694 | 36947 ft | 504 kts | 109° |
| 2026-04-27 14:20 | 38.02847 | -92.62228 | 36948 ft | 504 kts | 109° |
| 2026-04-27 14:21 | 38.00782 | -92.53751 | 36949 ft | 504 kts | 109° |
| 2026-04-27 14:21 | 37.98712 | -92.45287 | 36949 ft | 504 kts | 109° |
| 2026-04-27 14:22 | 37.96637 | -92.36832 | 36950 ft | 504 kts | 109° |
| 2026-04-27 14:22 | 37.94544 | -92.28329 | 36942 ft | 504 kts | 110° |
| 2026-04-27 14:23 | 37.92457 | -92.19886 | 36942 ft | 504 kts | 110° |
| 2026-04-27 14:23 | 37.90369 | -92.11465 | 36943 ft | 504 kts | 110° |
| 2026-04-27 14:24 | 37.88267 | -92.03014 | 36944 ft | 504 kts | 110° |
| 2026-04-27 14:24 | 37.86163 | -91.94584 | 36945 ft | 504 kts | 110° |
| 2026-04-27 14:25 | 37.84052 | -91.86157 | 36946 ft | 504 kts | 110° |
| 2026-04-27 14:25 | 37.81936 | -91.77740 | 36947 ft | 504 kts | 110° |
| 2026-04-27 14:26 | 37.79816 | -91.69334 | 36948 ft | 504 kts | 110° |
| 2026-04-27 14:26 | 37.77692 | -91.60943 | 36949 ft | 504 kts | 110° |
| 2026-04-27 14:27 | 37.75561 | -91.52554 | 36950 ft | 504 kts | 110° |
| 2026-04-27 14:27 | 37.73424 | -91.44164 | 36951 ft | 504 kts | 110° |
| 2026-04-27 14:28 | 37.71268 | -91.35730 | 36951 ft | 504 kts | 110° |
| 2026-04-27 14:28 | 37.69127 | -91.27382 | 36942 ft | 503 kts | 110° |
| 2026-04-27 14:29 | 37.66958 | -91.18954 | 36943 ft | 503 kts | 110° |
| 2026-04-27 14:29 | 37.64797 | -91.10586 | 36943 ft | 503 kts | 110° |
| 2026-04-27 14:30 | 37.62632 | -91.02231 | 36944 ft | 503 kts | 110° |
| 2026-04-27 14:30 | 37.60458 | -90.93866 | 36945 ft | 503 kts | 110° |
| 2026-04-27 14:31 | 37.58281 | -90.85516 | 36946 ft | 503 kts | 110° |
| 2026-04-27 14:31 | 37.56099 | -90.77178 | 36947 ft | 503 kts | 110° |
| 2026-04-27 14:32 | 37.53913 | -90.68849 | 36948 ft | 503 kts | 110° |
| 2026-04-27 14:32 | 37.51703 | -90.60458 | 36949 ft | 503 kts | 110° |
| 2026-04-27 14:33 | 37.49511 | -90.52161 | 36949 ft | 503 kts | 110° |
| 2026-04-27 14:33 | 37.47305 | -90.43839 | 36950 ft | 503 kts | 110° |
| 2026-04-27 14:34 | 37.45081 | -90.35476 | 36951 ft | 503 kts | 111° |
| 2026-04-27 14:34 | 37.42862 | -90.27160 | 36942 ft | 503 kts | 111° |
| 2026-04-27 14:35 | 37.40640 | -90.18859 | 36942 ft | 503 kts | 111° |
| 2026-04-27 14:35 | 37.38413 | -90.10566 | 36943 ft | 503 kts | 111° |
| 2026-04-27 14:36 | 37.36176 | -90.02260 | 36944 ft | 503 kts | 111° |
| 2026-04-27 14:36 | 37.33935 | -89.93967 | 36945 ft | 503 kts | 111° |
| 2026-04-27 14:37 | 37.31689 | -89.85681 | 36946 ft | 503 kts | 111° |
| 2026-04-27 14:37 | 37.29436 | -89.77400 | 36946 ft | 503 kts | 111° |
| 2026-04-27 14:38 | 37.27182 | -89.69137 | 36947 ft | 503 kts | 111° |
| 2026-04-27 14:38 | 37.24906 | -89.60819 | 36948 ft | 503 kts | 111° |
| 2026-04-27 14:39 | 37.22638 | -89.52556 | 36949 ft | 503 kts | 111° |
| 2026-04-27 14:39 | 37.20365 | -89.44306 | 36950 ft | 502 kts | 111° |
| 2026-04-27 14:40 | 37.18089 | -89.36065 | 36951 ft | 502 kts | 111° |
| 2026-04-27 14:40 | 37.15800 | -89.27804 | 36942 ft | 502 kts | 112° |
| 2026-04-27 14:41 | 37.13511 | -89.19572 | 36942 ft | 502 kts | 112° |
| 2026-04-27 14:41 | 37.11216 | -89.11340 | 36943 ft | 502 kts | 112° |
| 2026-04-27 14:42 | 37.08917 | -89.03118 | 36943 ft | 502 kts | 112° |
| 2026-04-27 14:42 | 37.06605 | -88.94879 | 36944 ft | 502 kts | 112° |
| 2026-04-27 14:43 | 37.04292 | -88.86661 | 36945 ft | 502 kts | 112° |
| 2026-04-27 14:43 | 37.01973 | -88.78446 | 36946 ft | 502 kts | 112° |
| 2026-04-27 14:44 | 36.99641 | -88.70211 | 36947 ft | 502 kts | 112° |
| 2026-04-27 14:44 | 36.97322 | -88.62043 | 36947 ft | 502 kts | 112° |
| 2026-04-27 14:45 | 36.94977 | -88.53812 | 36948 ft | 502 kts | 112° |
| 2026-04-27 14:45 | 36.92634 | -88.45612 | 36949 ft | 502 kts | 112° |
| 2026-04-27 14:46 | 36.90301 | -88.37470 | 36950 ft | 502 kts | 112° |
| 2026-04-27 14:46 | 36.87936 | -88.29244 | 36943 ft | 501 kts | 113° |
| 2026-04-27 14:47 | 36.85589 | -88.21103 | 36943 ft | 502 kts | 113° |
| 2026-04-27 14:47 | 36.83227 | -88.12936 | 36944 ft | 502 kts | 113° |
| 2026-04-27 14:48 | 36.80852 | -88.04747 | 36945 ft | 502 kts | 113° |
| 2026-04-27 14:48 | 36.77294 | -87.92524 | 36946 ft | 502 kts | 113° |
| 2026-04-27 14:49 | 36.74906 | -87.84354 | 36947 ft | 501 kts | 113° |
| 2026-04-27 14:49 | 36.72530 | -87.76244 | 36947 ft | 501 kts | 113° |
| 2026-04-27 14:50 | 36.70131 | -87.68083 | 36948 ft | 501 kts | 113° |
| 2026-04-27 14:50 | 36.67740 | -87.59974 | 36949 ft | 501 kts | 113° |
| 2026-04-27 14:51 | 36.65332 | -87.51827 | 36950 ft | 501 kts | 113° |
| 2026-04-27 14:51 | 36.62935 | -87.43745 | 36951 ft | 501 kts | 113° |
| 2026-04-27 14:52 | 36.60618 | -87.35564 | 36951 ft | 502 kts | 111° |
| 2026-04-27 14:52 | 36.58335 | -87.27351 | 36942 ft | 501 kts | 112° |
| 2026-04-27 14:53 | 36.56067 | -87.19215 | 36943 ft | 502 kts | 112° |
| 2026-04-27 14:53 | 36.53780 | -87.11037 | 36943 ft | 502 kts | 112° |
| 2026-04-27 14:54 | 36.51493 | -87.02882 | 36944 ft | 502 kts | 112° |
| 2026-04-27 14:54 | 36.49189 | -86.94692 | 36945 ft | 502 kts | 112° |
| 2026-04-27 14:55 | 36.46900 | -86.86581 | 36946 ft | 502 kts | 112° |
| 2026-04-27 14:55 | 36.44591 | -86.78422 | 36947 ft | 501 kts | 112° |
| 2026-04-27 14:56 | 36.42272 | -86.70254 | 36947 ft | 501 kts | 112° |
| 2026-04-27 14:56 | 36.39952 | -86.62106 | 36948 ft | 501 kts | 112° |
| 2026-04-27 14:57 | 36.37639 | -86.54007 | 36949 ft | 501 kts | 112° |
| 2026-04-27 14:57 | 36.35309 | -86.45869 | 36950 ft | 501 kts | 112° |
| 2026-04-27 14:58 | 36.32970 | -86.37727 | 36951 ft | 501 kts | 112° |
| 2026-04-27 14:58 | 36.30644 | -86.29652 | 36942 ft | 501 kts | 113° |
| 2026-04-27 14:59 | 36.28300 | -86.21542 | 36942 ft | 501 kts | 113° |
| 2026-04-27 14:59 | 36.25940 | -86.13403 | 36943 ft | 501 kts | 113° |
| 2026-04-27 15:00 | 36.23595 | -86.05334 | 36943 ft | 501 kts | 113° |
| 2026-04-27 15:00 | 36.21232 | -85.97226 | 36944 ft | 501 kts | 113° |
| 2026-04-27 15:01 | 36.18862 | -85.89120 | 36945 ft | 501 kts | 113° |
| 2026-04-27 15:01 | 36.16503 | -85.81076 | 36946 ft | 501 kts | 113° |
| 2026-04-27 15:02 | 36.14125 | -85.72987 | 36946 ft | 501 kts | 113° |
| 2026-04-27 15:02 | 36.11755 | -85.64950 | 36947 ft | 501 kts | 113° |
| 2026-04-27 15:03 | 36.09368 | -85.56882 | 36948 ft | 501 kts | 113° |
| 2026-04-27 15:03 | 36.06972 | -85.48804 | 36949 ft | 501 kts | 113° |
| 2026-04-27 15:04 | 36.04570 | -85.40727 | 36950 ft | 501 kts | 113° |
| 2026-04-27 15:04 | 36.02165 | -85.32663 | 36942 ft | 501 kts | 114° |
| 2026-04-27 15:05 | 35.99772 | -85.24667 | 36941 ft | 500 kts | 114° |
| 2026-04-27 15:05 | 35.97358 | -85.16619 | 36942 ft | 500 kts | 114° |
| 2026-04-27 15:06 | 35.94937 | -85.08573 | 36942 ft | 500 kts | 114° |
| 2026-04-27 15:06 | 35.92521 | -85.00568 | 36943 ft | 500 kts | 114° |
| 2026-04-27 15:07 | 35.90100 | -84.92566 | 36944 ft | 500 kts | 114° |
| 2026-04-27 15:07 | 35.87658 | -84.84514 | 36947 ft | 500 kts | 114° |
| 2026-04-27 15:08 | 35.85222 | -84.76508 | 36948 ft | 500 kts | 114° |
| 2026-04-27 15:08 | 35.82791 | -84.68541 | 36949 ft | 500 kts | 114° |
| 2026-04-27 15:09 | 35.80336 | -84.60519 | 36949 ft | 500 kts | 114° |
| 2026-04-27 15:09 | 35.77880 | -84.52513 | 36950 ft | 500 kts | 114° |
| 2026-04-27 15:10 | 35.75434 | -84.44564 | 36951 ft | 500 kts | 114° |
| 2026-04-27 15:10 | 35.72963 | -84.36552 | 36952 ft | 500 kts | 114° |
| 2026-04-27 15:11 | 35.70500 | -84.28591 | 36943 ft | 500 kts | 114° |
| 2026-04-27 15:11 | 35.68026 | -84.20616 | 36943 ft | 500 kts | 114° |
| 2026-04-27 15:12 | 35.65548 | -84.12651 | 36943 ft | 500 kts | 114° |
| 2026-04-27 15:12 | 35.63073 | -84.04715 | 36944 ft | 500 kts | 114° |
| 2026-04-27 15:13 | 35.60581 | -83.96749 | 36945 ft | 500 kts | 114° |
| 2026-04-27 15:13 | 35.58098 | -83.88829 | 36946 ft | 500 kts | 114° |
| 2026-04-27 15:14 | 35.55597 | -83.80878 | 36947 ft | 500 kts | 114° |
| 2026-04-27 15:14 | 35.53101 | -83.72961 | 36947 ft | 500 kts | 114° |
| 2026-04-27 15:15 | 35.50588 | -83.65012 | 36948 ft | 500 kts | 114° |
| 2026-04-27 15:15 | 35.48074 | -83.57085 | 36949 ft | 500 kts | 114° |
| 2026-04-27 15:16 | 35.45568 | -83.49200 | 36950 ft | 500 kts | 114° |
| 2026-04-27 15:16 | 35.43033 | -83.41248 | 36950 ft | 500 kts | 114° |
| 2026-04-27 15:17 | 35.40502 | -83.33327 | 36946 ft | 499 kts | 115° |
| 2026-04-27 15:17 | 35.37985 | -83.25474 | 36942 ft | 499 kts | 115° |
| 2026-04-27 15:18 | 35.35451 | -83.17587 | 36942 ft | 499 kts | 115° |
| 2026-04-27 15:18 | 35.32903 | -83.09678 | 36943 ft | 499 kts | 115° |
| 2026-04-27 15:19 | 35.30367 | -83.01823 | 36944 ft | 499 kts | 115° |
| 2026-04-27 15:19 | 35.27807 | -82.93921 | 36945 ft | 499 kts | 115° |
| 2026-04-27 15:20 | 35.25254 | -82.86042 | 36945 ft | 499 kts | 115° |
| 2026-04-27 15:20 | 35.22700 | -82.78196 | 36946 ft | 499 kts | 115° |
| 2026-04-27 15:21 | 35.20141 | -82.70355 | 36946 ft | 499 kts | 115° |
| 2026-04-27 15:21 | 35.17556 | -82.62456 | 36947 ft | 499 kts | 115° |
| 2026-04-27 15:22 | 35.14992 | -82.54642 | 36948 ft | 499 kts | 115° |
| 2026-04-27 15:22 | 35.12403 | -82.46772 | 36949 ft | 499 kts | 115° |
| 2026-04-27 15:23 | 35.09825 | -82.38958 | 36950 ft | 499 kts | 115° |
| 2026-04-27 15:23 | 35.07218 | -82.31085 | 36940 ft | 499 kts | 116° |
| 2026-04-27 15:24 | 35.04625 | -82.23267 | 36941 ft | 499 kts | 116° |
| 2026-04-27 15:24 | 35.02029 | -82.15456 | 36942 ft | 499 kts | 116° |
| 2026-04-27 15:25 | 34.99430 | -82.07657 | 36942 ft | 499 kts | 116° |
| 2026-04-27 15:25 | 34.96829 | -81.99870 | 36943 ft | 499 kts | 116° |
| 2026-04-27 15:26 | 34.94206 | -81.92037 | 36944 ft | 499 kts | 116° |
| 2026-04-27 15:26 | 34.91594 | -81.84261 | 36944 ft | 498 kts | 116° |
| 2026-04-27 15:27 | 34.88960 | -81.76437 | 36948 ft | 498 kts | 116° |
| 2026-04-27 15:27 | 34.86337 | -81.68665 | 36949 ft | 498 kts | 116° |
| 2026-04-27 15:28 | 34.83708 | -81.60894 | 36950 ft | 498 kts | 116° |
| 2026-04-27 15:28 | 34.81078 | -81.53142 | 36950 ft | 498 kts | 116° |
| 2026-04-27 15:29 | 34.78424 | -81.45338 | 36951 ft | 498 kts | 116° |
| 2026-04-27 15:29 | 34.75780 | -81.37582 | 36952 ft | 498 kts | 116° |
| 2026-04-27 15:30 | 34.73126 | -81.29810 | 36943 ft | 498 kts | 116° |
| 2026-04-27 15:30 | 34.70479 | -81.22086 | 36943 ft | 498 kts | 116° |
| 2026-04-27 15:31 | 34.67825 | -81.14359 | 36943 ft | 498 kts | 116° |
| 2026-04-27 15:31 | 34.65149 | -81.06587 | 36944 ft | 498 kts | 116° |
| 2026-04-27 15:32 | 34.62489 | -80.98882 | 36945 ft | 498 kts | 116° |
| 2026-04-27 15:32 | 34.59804 | -80.91123 | 36946 ft | 498 kts | 116° |
| 2026-04-27 15:33 | 34.57134 | -80.83424 | 36946 ft | 498 kts | 116° |
| 2026-04-27 15:33 | 34.54459 | -80.75722 | 36947 ft | 498 kts | 116° |
| 2026-04-27 15:34 | 34.51762 | -80.67979 | 36944 ft | 498 kts | 116° |
| 2026-04-27 15:34 | 34.50409 | -80.64104 | 36455 ft | 503 kts | 116° |
| 2026-04-27 15:34 | 34.49052 | -80.60224 | 35970 ft | 501 kts | 116° |
| 2026-04-27 15:35 | 34.47703 | -80.56368 | 35475 ft | 498 kts | 116° |
| 2026-04-27 15:35 | 34.46355 | -80.52522 | 34983 ft | 496 kts | 116° |
| 2026-04-27 15:35 | 34.45012 | -80.48696 | 34497 ft | 497 kts | 116° |
| 2026-04-27 15:35 | 34.43670 | -80.44877 | 34016 ft | 498 kts | 116° |
| 2026-04-27 15:36 | 34.42303 | -80.40990 | 33528 ft | 500 kts | 116° |
| 2026-04-27 15:36 | 34.40950 | -80.37148 | 33047 ft | 501 kts | 116° |
| 2026-04-27 15:36 | 34.39589 | -80.33289 | 32557 ft | 501 kts | 117° |
| 2026-04-27 15:36 | 34.38228 | -80.29433 | 32055 ft | 501 kts | 117° |
| 2026-04-27 15:37 | 34.36848 | -80.25530 | 31550 ft | 502 kts | 117° |
| 2026-04-27 15:37 | 34.35479 | -80.21662 | 31051 ft | 502 kts | 117° |
| 2026-04-27 15:37 | 34.34113 | -80.17808 | 30554 ft | 503 kts | 117° |
| 2026-04-27 15:37 | 34.32744 | -80.13949 | 30058 ft | 504 kts | 117° |
| 2026-04-27 15:38 | 34.31335 | -80.09989 | 29590 ft | 518 kts | 116° |
| 2026-04-27 15:38 | 34.29937 | -80.06051 | 29060 ft | 505 kts | 117° |
| 2026-04-27 15:38 | 34.28581 | -80.02235 | 28538 ft | 491 kts | 117° |
| 2026-04-27 15:38 | 34.27236 | -79.98463 | 28013 ft | 480 kts | 117° |
| 2026-04-27 15:39 | 34.25923 | -79.94791 | 27532 ft | 485 kts | 117° |
| 2026-04-27 15:39 | 34.24570 | -79.91009 | 26983 ft | 492 kts | 117° |
| 2026-04-27 15:39 | 34.23227 | -79.87254 | 26357 ft | 489 kts | 117° |
| 2026-04-27 15:39 | 34.21899 | -79.83542 | 25731 ft | 483 kts | 117° |
| 2026-04-27 15:40 | 34.20569 | -79.79832 | 25096 ft | 476 kts | 117° |
| 2026-04-27 15:40 | 34.19270 | -79.76215 | 24471 ft | 471 kts | 117° |
| 2026-04-27 15:40 | 34.17967 | -79.72589 | 23841 ft | 466 kts | 117° |
| 2026-04-27 15:40 | 34.16695 | -79.69054 | 23222 ft | 462 kts | 117° |
| 2026-04-27 15:41 | 34.15923 | -79.66911 | 22844 ft | 460 kts | 117° |
| 2026-04-27 15:41 | 34.14749 | -79.63708 | 22293 ft | 448 kts | 115° |
| 2026-04-27 15:41 | 34.13543 | -79.60333 | 21657 ft | 437 kts | 115° |
| 2026-04-27 15:42 | 34.12344 | -79.56996 | 21017 ft | 427 kts | 115° |
| 2026-04-27 15:42 | 34.11182 | -79.53780 | 20390 ft | 420 kts | 115° |
| 2026-04-27 15:42 | 34.10017 | -79.50558 | 19637 ft | 417 kts | 115° |
| 2026-04-27 15:42 | 34.08863 | -79.47372 | 18890 ft | 413 kts | 115° |
| 2026-04-27 15:43 | 34.07733 | -79.44257 | 18149 ft | 409 kts | 115° |
| 2026-04-27 15:43 | 34.06599 | -79.41130 | 17396 ft | 404 kts | 115° |
| 2026-04-27 15:43 | 34.05472 | -79.38042 | 16644 ft | 400 kts | 115° |
| 2026-04-27 15:43 | 34.04377 | -79.35036 | 15905 ft | 395 kts | 115° |
| 2026-04-27 15:44 | 34.03274 | -79.32011 | 15146 ft | 392 kts | 116° |
| 2026-04-27 15:44 | 34.02182 | -79.29014 | 14387 ft | 388 kts | 116° |
| 2026-04-27 15:44 | 34.01115 | -79.26091 | 13640 ft | 384 kts | 116° |
| 2026-04-27 15:44 | 34.00045 | -79.23158 | 12884 ft | 381 kts | 116° |
| 2026-04-27 15:45 | 33.98985 | -79.20255 | 12129 ft | 378 kts | 116° |
| 2026-04-27 15:45 | 33.97889 | -79.17441 | 11394 ft | 371 kts | 125° |
| 2026-04-27 15:45 | 33.96120 | -79.15385 | 10955 ft | 351 kts | 148° |
| 2026-04-27 15:45 | 33.93865 | -79.14301 | 9803 ft | 348 kts | 172° |
| 2026-04-27 15:46 | 33.91544 | -79.13654 | 9013 ft | 346 kts | 171° |
| 2026-04-27 15:46 | 33.89300 | -79.13023 | 9010 ft | 309 kts | 171° |
| 2026-04-27 15:46 | 33.88131 | -79.12723 | 8926 ft | 285 kts | 171° |
| 2026-04-27 15:46 | 33.86254 | -79.12370 | 8330 ft | 271 kts | 171° |
| 2026-04-27 15:47 | 33.84415 | -79.12026 | 7469 ft | 267 kts | 171° |
| 2026-04-27 15:47 | 33.82607 | -79.11687 | 6631 ft | 264 kts | 171° |
| 2026-04-27 15:47 | 33.80844 | -79.11358 | 5821 ft | 260 kts | 171° |
| 2026-04-27 15:47 | 33.79077 | -79.11027 | 5012 ft | 257 kts | 171° |
| 2026-04-27 15:48 | 33.77332 | -79.10701 | 4202 ft | 254 kts | 171° |
| 2026-04-27 15:48 | 33.75611 | -79.10379 | 3408 ft | 251 kts | 171° |
| 2026-04-27 15:48 | 33.73889 | -79.10057 | 2886 ft | 250 kts | 171° |
| 2026-04-27 15:49 | 33.70511 | -79.09428 | 2321 ft | 246 kts | 171° |
| 2026-04-27 15:49 | 33.68829 | -79.09115 | 2127 ft | 242 kts | 171° |
| 2026-04-27 15:49 | 33.67163 | -79.08804 | 2107 ft | 243 kts | 171° |
| 2026-04-27 15:49 | 33.65483 | -79.08490 | 2102 ft | 245 kts | 171° |
| 2026-04-27 15:50 | 33.63817 | -79.08179 | 2100 ft | 246 kts | 171° |
| 2026-04-27 15:50 | 33.62130 | -79.07865 | 2100 ft | 246 kts | 171° |
| 2026-04-27 15:50 | 33.60440 | -79.07550 | 2099 ft | 246 kts | 171° |
| 2026-04-27 15:50 | 33.58750 | -79.07235 | 2100 ft | 246 kts | 171° |
| 2026-04-27 15:51 | 33.57055 | -79.06919 | 2100 ft | 246 kts | 171° |
| 2026-04-27 15:51 | 33.55372 | -79.06606 | 2099 ft | 246 kts | 171° |
| 2026-04-27 15:51 | 33.53685 | -79.06292 | 2100 ft | 246 kts | 171° |
| 2026-04-27 15:51 | 33.51999 | -79.05978 | 2100 ft | 246 kts | 171° |
| 2026-04-27 15:52 | 33.50311 | -79.05664 | 2099 ft | 245 kts | 171° |
| 2026-04-27 15:52 | 33.48701 | -79.05312 | 2122 ft | 223 kts | 161° |
| 2026-04-27 15:52 | 33.47628 | -79.04219 | 1967 ft | 199 kts | 118° |
| 2026-04-27 15:52 | 33.47470 | -79.02689 | 1774 ft | 177 kts | 79° |
| 2026-04-27 15:53 | 33.47705 | -79.01282 | 1666 ft | 170 kts | 78° |
| 2026-04-27 15:53 | 33.47945 | -78.99876 | 1621 ft | 173 kts | 78° |
| 2026-04-27 15:53 | 33.48188 | -78.98450 | 1616 ft | 175 kts | 78° |
| 2026-04-27 15:53 | 33.48432 | -78.97018 | 1611 ft | 175 kts | 78° |
| 2026-04-27 15:54 | 33.48678 | -78.95583 | 1608 ft | 176 kts | 78° |
| 2026-04-27 15:54 | 33.49106 | -78.94235 | 1571 ft | 175 kts | 50° |
| 2026-04-27 15:54 | 33.50099 | -78.93402 | 1614 ft | 176 kts | 31° |
| 2026-04-27 15:54 | 33.51134 | -78.92653 | 1605 ft | 176 kts | 31° |
| 2026-04-27 15:55 | 33.52183 | -78.91898 | 1605 ft | 175 kts | 31° |
| 2026-04-27 15:55 | 33.53232 | -78.91142 | 1606 ft | 176 kts | 31° |
| 2026-04-27 15:55 | 33.53931 | -78.90639 | 1605 ft | 175 kts | 31° |
| 2026-04-27 15:55 | 33.54986 | -78.89899 | 1599 ft | 176 kts | 25° |
| 2026-04-27 15:56 | 33.56181 | -78.89835 | 1602 ft | 175 kts | 347° |
| 2026-04-27 15:56 | 33.57360 | -78.90161 | 1599 ft | 176 kts | 347° |
| 2026-04-27 15:56 | 33.58467 | -78.90456 | 1564 ft | 146 kts | 348° |
| 2026-04-27 15:56 | 33.59386 | -78.90691 | 1450 ft | 130 kts | 348° |
| 2026-04-27 15:57 | 33.60265 | -78.90911 | 1283 ft | 129 kts | 348° |
| 2026-04-27 15:57 | 33.61136 | -78.91129 | 1137 ft | 130 kts | 348° |
| 2026-04-27 15:57 | 33.62027 | -78.91351 | 976 ft | 131 kts | 348° |
| 2026-04-27 15:57 | 33.62918 | -78.91573 | 806 ft | 130 kts | 348° |
| 2026-04-27 15:58 | 33.63808 | -78.91795 | 634 ft | 130 kts | 348° |
| 2026-04-27 15:58 | 33.64681 | -78.92012 | 464 ft | 130 kts | 348° |
| 2026-04-27 15:58 | 33.65564 | -78.92232 | 292 ft | 129 kts | 348° |
| 2026-04-27 15:58 | 33.66443 | -78.92451 | 122 ft | 129 kts | 348° |
| 2026-04-27 15:59 | 33.67305 | -78.92665 | 25 ft | 110 kts | 348° |
| 2026-04-27 15:59 | 33.67731 | -78.92771 | 25 ft | 42 kts | 348° |
| 2026-04-27 15:59 | 33.67959 | -78.92832 | 25 ft | 24 kts | 346° |
| 2026-04-27 15:59 | 33.68103 | -78.92841 | 25 ft | 18 kts | 30° |
| 2026-04-27 16:00 | 33.68160 | -78.92725 | 25 ft | 14 kts | 66° |
| 2026-04-27 16:00 | 33.68195 | -78.92620 | 25 ft | 14 kts | 84° |
| 2026-04-27 16:00 | 33.68195 | -78.92492 | 25 ft | 10 kts | 88° |
| 2026-04-27 16:00 | 33.68202 | -78.92418 | 25 ft | 7 kts | 78° |
| 2026-04-27 16:01 | 33.68205 | -78.92399 | 25 ft | 0 kts | 79° |